Terminal Aerodrome Forecast
Issued by NWS

Home | Current Version | Previous Version | Text Only | Print | Product List | Glossary On
Versions: 1 2 3 4 5 6 7 8 9 10 11 12 13 14 15
000
FTUS45 KGJT 211131
TAFTEX
TAF
KTEX 211131Z 2112/2212 15015G25KT P6SM SKC
     FM212100 19015G33KT P6SM SKC
     FM220200 18011G29KT P6SM FEW090 FEW250 WS020/20040KT
     FM220800 19014G28KT P6SM FEW045 SCT250 WS020/20040KT=

USA.gov is the U.S. government's official web portal to all federal, state and local government web resources and services.